createdAt,value
2017-11-08T00:00:51.450Z,37.97
2017-11-08T00:03:18.404Z,44.35
2017-11-08T00:05:45.764Z,23.38
2017-11-08T00:08:12.918Z,43.65
2017-11-08T00:10:39.778Z,21.37
2017-11-08T00:13:06.036Z,16.23
2017-11-08T00:15:32.221Z,47.08
2017-11-08T00:17:58.440Z,59.45
2017-11-08T00:20:25.799Z,26.58
2017-11-08T00:22:51.995Z,34.38
2017-11-08T00:25:18.198Z,26.65
2017-11-08T00:27:45.242Z,36.60
2017-11-08T00:30:11.473Z,25.70
2017-11-08T00:32:37.660Z,37.73
2017-11-08T00:35:04.940Z,27.25
2017-11-08T00:37:32.314Z,26.73
2017-11-08T00:39:58.504Z,20.60
2017-11-08T00:42:25.370Z,30.33
2017-11-08T00:44:51.836Z,28.95
2017-11-08T00:47:19.900Z,21.73
2017-11-08T00:49:46.083Z,29.83
2017-11-08T00:52:12.266Z,23.42
2017-11-08T00:54:39.491Z,28.70
2017-11-08T00:57:06.570Z,21.87
2017-11-08T00:59:33.612Z,19.70
2017-11-08T01:02:01.265Z,25.10
2017-11-08T01:04:27.733Z,27.20
2017-11-08T01:06:54.592Z,23.45
2017-11-08T01:09:20.828Z,25.90
2017-11-08T01:11:47.068Z,19.48
2017-11-08T01:14:13.759Z,25.83
2017-11-08T01:16:40.710Z,24.00
2017-11-08T01:19:07.085Z,30.80
2017-11-08T01:21:33.338Z,23.92
2017-11-08T01:24:00.275Z,19.30
2017-11-08T01:26:26.769Z,26.77
2017-11-08T01:28:52.966Z,16.90
2017-11-08T01:31:21.007Z,22.75
2017-11-08T01:33:47.443Z,18.85
2017-11-08T01:36:13.662Z,15.52
2017-11-08T01:38:42.273Z,23.77
2017-11-08T01:41:15.409Z,20.58
2017-11-08T01:43:41.613Z,17.65
2017-11-08T01:46:07.822Z,17.15
2017-11-08T01:48:34.760Z,23.02
2017-11-08T01:51:01.721Z,14.68
2017-11-08T01:53:27.929Z,17.67
2017-11-08T01:55:55.126Z,20.00
2017-11-08T01:58:21.398Z,16.50
2017-11-08T02:00:47.662Z,13.27
2017-11-08T02:03:13.889Z,17.48
2017-11-08T02:05:40.100Z,16.33
2017-11-08T02:08:07.062Z,15.47
2017-11-08T02:10:33.293Z,14.60
2017-11-08T02:12:59.491Z,15.63
2017-11-08T02:15:25.758Z,18.77
2017-11-08T02:17:51.962Z,18.40
2017-11-08T02:20:18.963Z,17.07
2017-11-08T02:22:45.171Z,17.02
2017-11-08T02:25:12.452Z,20.77
2017-11-08T02:27:38.657Z,16.73
2017-11-08T02:30:04.843Z,18.40
2017-11-08T02:32:31.809Z,16.35
2017-11-08T02:34:58.012Z,11.10
2017-11-08T02:37:24.218Z,13.90
2017-11-08T02:39:50.436Z,12.87
2017-11-08T02:42:16.635Z,15.27
2017-11-08T02:44:42.820Z,11.50
2017-11-08T02:47:09.776Z,16.37
2017-11-08T02:49:35.990Z,20.27
2017-11-08T02:52:02.932Z,20.77
2017-11-08T02:54:29.872Z,16.27
2017-11-08T02:56:56.820Z,12.90
2017-11-08T02:59:23.765Z,17.80
2017-11-08T03:01:50.685Z,14.87
2017-11-08T03:04:16.877Z,19.75
2017-11-08T03:06:43.059Z,12.43
2017-11-08T03:09:09.230Z,14.90
2017-11-08T03:11:35.412Z,17.37
2017-11-08T03:14:01.617Z,19.10
2017-11-08T03:16:27.797Z,19.87
2017-11-08T03:18:54.008Z,13.77
2017-11-08T03:21:20.912Z,17.48
2017-11-08T03:23:47.065Z,17.70
2017-11-08T03:26:13.285Z,12.57
2017-11-08T03:28:39.440Z,19.40
2017-11-08T03:31:06.342Z,21.13
2017-11-08T03:33:32.566Z,18.67
2017-11-08T03:35:58.756Z,22.90
2017-11-08T03:38:24.945Z,22.00
2017-11-08T03:40:51.147Z,15.83
2017-11-08T03:43:18.060Z,19.00
2017-11-08T03:45:44.227Z,20.70
2017-11-08T03:48:10.578Z,20.20
2017-11-08T03:50:37.528Z,20.67
2017-11-08T03:53:04.440Z,20.37
2017-11-08T03:55:30.637Z,19.17
2017-11-08T03:57:56.801Z,14.43
2017-11-08T04:00:22.988Z,24.17
2017-11-08T04:02:49.167Z,15.63
2017-11-08T04:05:16.076Z,20.88
2017-11-08T04:07:42.243Z,20.03
2017-11-08T04:10:09.188Z,19.30
2017-11-08T04:12:36.111Z,22.98
2017-11-08T04:15:02.335Z,21.12
2017-11-08T04:17:28.564Z,17.85
2017-11-08T04:19:54.768Z,25.08
2017-11-08T04:22:21.036Z,20.98
2017-11-08T04:24:48.008Z,116.53
2017-11-08T04:27:14.926Z,156.10
2017-11-08T04:29:41.842Z,100.45
2017-11-08T04:32:08.245Z,45.60
2017-11-08T04:34:34.415Z,71.67
2017-11-08T04:37:00.588Z,47.07
2017-11-08T04:39:26.791Z,45.65
2017-11-08T04:41:53.707Z,29.37
2017-11-08T04:44:19.908Z,45.72
2017-11-08T04:46:46.132Z,38.38
2017-11-08T04:49:12.336Z,36.10
2017-11-08T04:51:38.557Z,27.48
2017-11-08T04:54:05.725Z,21.48
2017-11-08T04:56:31.898Z,23.17
2017-11-08T04:58:58.072Z,24.60
2017-11-08T05:01:24.268Z,21.90
2017-11-08T05:03:50.461Z,16.93
2017-11-08T05:06:16.681Z,23.62
2017-11-08T05:08:42.871Z,28.90
2017-11-08T05:11:09.779Z,25.53
2017-11-08T05:13:35.961Z,20.20
2017-11-08T05:16:02.189Z,23.37
2017-11-08T05:18:28.360Z,24.73
2017-11-08T05:20:54.532Z,28.80
2017-11-08T05:23:20.833Z,28.10
2017-11-08T05:25:47.768Z,24.67
2017-11-08T05:28:13.942Z,23.40
2017-11-08T05:30:40.482Z,23.80
2017-11-08T05:33:06.646Z,21.07
2017-11-08T05:35:32.853Z,22.80
2017-11-08T05:37:59.366Z,30.63
2017-11-08T05:40:25.532Z,33.97
2017-11-08T05:42:51.707Z,22.90
2017-11-08T05:45:17.909Z,24.55
2017-11-08T05:47:44.089Z,28.00
2017-11-08T05:50:10.265Z,29.90
2017-11-08T05:52:37.187Z,24.87
2017-11-08T05:55:03.364Z,30.47
2017-11-08T05:57:29.906Z,29.07
2017-11-08T05:59:56.101Z,32.53
2017-11-08T06:02:23.017Z,27.20
2017-11-08T06:04:49.237Z,30.47
2017-11-08T06:07:15.397Z,40.40
2017-11-08T06:09:42.316Z,26.47
2017-11-08T06:12:08.540Z,33.90
2017-11-08T06:14:34.739Z,25.30
2017-11-08T06:17:00.928Z,34.30
2017-11-08T06:19:27.953Z,36.53
2017-11-08T06:21:54.119Z,30.67
2017-11-08T06:24:20.280Z,42.90
2017-11-08T06:26:46.489Z,33.67
2017-11-08T06:29:12.652Z,37.93
2017-11-08T06:31:38.832Z,34.70
2017-11-08T06:34:05.027Z,38.33
2017-11-08T06:36:31.198Z,37.37
2017-11-08T06:38:57.355Z,46.90
2017-11-08T06:41:23.540Z,34.63
2017-11-08T06:43:49.701Z,35.90
2017-11-08T06:46:15.885Z,40.00
2017-11-08T06:48:42.063Z,34.80
2017-11-08T06:51:11.197Z,33.60
2017-11-08T06:53:38.119Z,38.87
2017-11-08T06:56:08.314Z,50.57
2017-11-08T06:58:34.517Z,43.70
2017-11-08T07:01:00.739Z,45.77
2017-11-08T07:03:26.916Z,42.20
2017-11-08T07:05:53.102Z,45.93
2017-11-08T07:08:19.310Z,37.87
2017-11-08T07:10:45.489Z,47.57
2017-11-08T07:13:11.672Z,30.37
2017-11-08T07:15:37.887Z,42.70
2017-11-08T07:18:04.049Z,37.97
2017-11-08T07:20:30.216Z,42.93
2017-11-08T07:22:56.416Z,48.10
2017-11-08T07:25:22.588Z,29.43
2017-11-08T07:27:48.787Z,41.60
2017-11-08T07:30:15.014Z,38.03
2017-11-08T07:32:41.188Z,44.97
2017-11-08T07:35:07.504Z,42.63
2017-11-08T07:37:34.459Z,48.77
2017-11-08T07:40:00.630Z,46.30
2017-11-08T07:42:27.360Z,42.30
2017-11-08T07:44:54.164Z,42.67
2017-11-08T07:47:20.669Z,42.63
2017-11-08T07:49:47.683Z,46.47
2017-11-08T07:52:14.712Z,40.70
2017-11-08T07:54:47.685Z,44.33
2017-11-08T07:57:13.854Z,41.60
2017-11-08T07:59:46.422Z,50.73
2017-11-08T08:02:13.539Z,45.53
2017-11-08T08:04:39.714Z,53.03
2017-11-08T08:07:09.532Z,57.63
2017-11-08T08:09:38.872Z,50.73
2017-11-08T08:12:05.386Z,42.80
2017-11-08T08:14:31.749Z,44.50
2017-11-08T08:16:59.788Z,48.67
2017-11-08T08:19:26.035Z,45.00
2017-11-08T08:21:52.315Z,52.77
2017-11-08T08:24:19.586Z,53.57
2017-11-08T08:26:50.852Z,47.27
2017-11-08T08:29:17.382Z,41.97
2017-11-08T08:31:44.613Z,42.03
2017-11-08T08:34:12.103Z,44.93
2017-11-08T08:36:38.309Z,50.63
2017-11-08T08:39:04.512Z,46.00
2017-11-08T08:41:31.500Z,60.43
2017-11-08T08:43:58.151Z,49.63
2017-11-08T08:46:24.367Z,72.70
2017-11-08T08:48:51.532Z,90.03
2017-11-08T08:51:18.718Z,80.43
2017-11-08T08:53:45.018Z,66.43
2017-11-08T08:56:11.208Z,77.87
2017-11-08T08:58:39.015Z,97.37
2017-11-08T09:01:05.261Z,118.07
2017-11-08T09:03:33.965Z,62.97
2017-11-08T09:06:01.170Z,116.13
2017-11-08T09:08:27.436Z,135.67
2017-11-08T09:10:54.379Z,110.13
2017-11-08T09:13:21.311Z,59.90
2017-11-08T09:15:48.170Z,59.50
2017-11-08T09:18:15.152Z,60.07
2017-11-08T09:20:42.141Z,60.63
2017-11-08T09:23:08.600Z,68.90
2017-11-08T09:25:35.366Z,62.20
2017-11-08T09:28:02.363Z,68.50
2017-11-08T09:30:28.557Z,62.77
2017-11-08T09:32:55.624Z,57.87
2017-11-08T09:35:22.896Z,64.67
2017-11-08T09:37:53.061Z,70.00
2017-11-08T09:40:23.269Z,68.50
2017-11-08T09:42:50.013Z,67.67
2017-11-08T09:45:19.708Z,60.43
2017-11-08T09:47:45.953Z,66.30
2017-11-08T09:50:13.636Z,87.77
2017-11-08T09:52:41.246Z,63.70
2017-11-08T09:55:08.562Z,74.13
2017-11-08T09:57:36.285Z,69.43
2017-11-08T10:00:03.984Z,66.20
2017-11-08T10:02:30.221Z,61.67
2017-11-08T10:04:59.552Z,62.20
2017-11-08T10:07:26.391Z,68.80
2017-11-08T10:09:53.498Z,63.33
2017-11-08T10:12:20.150Z,59.67
2017-11-08T10:14:47.598Z,71.50
2017-11-08T10:17:13.883Z,73.07
2017-11-08T10:19:40.255Z,73.63
2017-11-08T10:22:09.957Z,74.90
2017-11-08T10:24:36.996Z,60.60
2017-11-08T10:27:03.516Z,68.53
2017-11-08T10:29:30.477Z,64.57
2017-11-08T10:31:58.289Z,62.43
2017-11-08T10:34:24.459Z,74.77
2017-11-08T10:36:51.390Z,117.50
2017-11-08T10:39:17.658Z,69.50
2017-11-08T10:41:44.261Z,84.93
2017-11-08T10:44:11.315Z,78.00
2017-11-08T10:46:37.970Z,96.47
2017-11-08T10:49:04.581Z,97.83
2017-11-08T10:51:31.212Z,94.80
2017-11-08T10:53:57.972Z,77.73
2017-11-08T10:56:24.657Z,101.27
2017-11-08T10:58:51.526Z,84.93
2017-11-08T11:01:20.311Z,105.10
2017-11-08T11:03:46.569Z,102.03
2017-11-08T11:06:12.793Z,98.03
2017-11-08T11:08:39.555Z,83.40
2017-11-08T11:11:06.068Z,105.73
2017-11-08T11:13:32.751Z,90.67
2017-11-08T11:15:59.429Z,82.30
2017-11-08T11:18:26.446Z,79.43
2017-11-08T11:20:53.238Z,71.00
2017-11-08T11:23:20.073Z,81.53
2017-11-08T11:25:50.527Z,67.83
2017-11-08T11:28:17.688Z,64.80
2017-11-08T11:30:44.565Z,71.10
2017-11-08T11:33:11.671Z,71.60
2017-11-08T11:35:38.237Z,73.57
2017-11-08T11:38:04.951Z,75.67
2017-11-08T11:40:31.717Z,69.50
2017-11-08T11:42:58.494Z,67.10
2017-11-08T11:45:24.750Z,72.03
2017-11-08T11:47:51.292Z,73.40
2017-11-08T11:50:19.134Z,73.83
2017-11-08T11:52:46.195Z,69.53
2017-11-08T11:55:13.301Z,66.77
2017-11-08T11:57:40.428Z,69.10
2017-11-08T12:00:07.200Z,74.87
2017-11-08T12:02:34.272Z,143.10
2017-11-08T12:05:00.815Z,74.83
2017-11-08T12:07:27.409Z,106.37
2017-11-08T12:09:54.433Z,84.50
2017-11-08T12:12:21.217Z,100.60
2017-11-08T12:14:48.180Z,93.83
2017-11-08T12:17:15.142Z,95.00
2017-11-08T12:19:42.399Z,62.20
2017-11-08T12:22:09.486Z,117.07
2017-11-08T12:24:37.458Z,75.30
2017-11-08T12:27:05.253Z,80.07
2017-11-08T12:29:31.441Z,107.63
2017-11-08T12:31:58.175Z,69.50
2017-11-08T12:34:25.433Z,66.33
2017-11-08T12:36:52.339Z,83.57
2017-11-08T12:39:19.201Z,76.67
2017-11-08T12:41:46.338Z,72.10
2017-11-08T12:44:13.371Z,53.70
2017-11-08T12:46:40.358Z,61.73
2017-11-08T12:49:06.925Z,59.60
2017-11-08T12:51:33.663Z,59.00
2017-11-08T12:54:00.077Z,51.83
2017-11-08T12:56:26.374Z,56.33
2017-11-08T12:58:52.572Z,52.47
2017-11-08T13:01:18.810Z,50.10
2017-11-08T13:03:44.994Z,57.80
2017-11-08T13:06:12.752Z,52.03
2017-11-08T13:08:38.957Z,58.00
2017-11-08T13:11:05.142Z,57.40
2017-11-08T13:13:31.538Z,51.97
2017-11-08T13:15:58.244Z,50.80
2017-11-08T13:18:25.188Z,54.10
2017-11-08T13:20:51.605Z,53.60
2017-11-08T13:23:18.341Z,54.40
2017-11-08T13:25:44.980Z,54.50
2017-11-08T13:28:11.774Z,55.90
2017-11-08T13:30:38.610Z,47.93
2017-11-08T13:33:05.151Z,48.23
2017-11-08T13:35:31.852Z,48.43
2017-11-08T13:37:58.675Z,46.87
2017-11-08T13:40:33.384Z,49.77
2017-11-08T13:42:59.878Z,71.73
2017-11-08T13:45:27.285Z,67.27
2017-11-08T13:47:53.491Z,77.87
2017-11-08T13:50:20.153Z,83.43
2017-11-08T13:52:46.868Z,74.57
2017-11-08T13:55:14.016Z,54.30
2017-11-08T13:57:41.046Z,52.20
2017-11-08T14:00:07.548Z,47.97
2017-11-08T14:02:34.436Z,55.30
2017-11-08T14:05:01.761Z,49.33
2017-11-08T14:07:28.736Z,53.93
2017-11-08T14:09:55.904Z,47.63
2017-11-08T14:12:22.705Z,51.20
2017-11-08T14:14:49.725Z,51.23
2017-11-08T14:17:20.074Z,58.47
2017-11-08T14:19:46.329Z,55.90
2017-11-08T14:22:13.246Z,47.97
2017-11-08T14:24:39.545Z,50.87
2017-11-08T14:27:05.809Z,51.97
2017-11-08T14:29:33.352Z,50.27
2017-11-08T14:31:59.816Z,48.97
2017-11-08T14:34:28.163Z,48.53
2017-11-08T14:36:55.342Z,47.20
2017-11-08T14:39:21.634Z,50.57
2017-11-08T14:41:50.274Z,54.53
2017-11-08T14:44:17.205Z,47.87
2017-11-08T14:46:43.679Z,53.70
2017-11-08T14:49:09.850Z,53.00
2017-11-08T14:51:36.057Z,51.57
2017-11-08T14:54:02.305Z,54.60
2017-11-08T14:56:28.480Z,48.40
2017-11-08T14:58:54.678Z,51.03
2017-11-08T15:01:21.149Z,51.07
2017-11-08T15:03:47.323Z,55.27
2017-11-08T15:06:15.258Z,60.13
2017-11-08T15:08:41.428Z,49.80
2017-11-08T15:11:17.589Z,55.60
2017-11-08T15:13:43.801Z,58.73
2017-11-08T15:16:10.012Z,50.97
2017-11-08T15:18:36.187Z,60.00
2017-11-08T15:21:03.173Z,55.13
2017-11-08T15:23:29.368Z,54.53
2017-11-08T15:25:55.552Z,60.37
2017-11-08T15:28:21.770Z,51.87
2017-11-08T15:30:48.688Z,61.07
2017-11-08T15:33:14.872Z,54.43
2017-11-08T15:35:41.060Z,52.93
2017-11-08T15:38:08.182Z,54.50
2017-11-08T15:40:34.358Z,57.10
2017-11-08T15:43:00.526Z,57.73
2017-11-08T15:45:27.079Z,61.20
2017-11-08T15:47:53.253Z,53.97
2017-11-08T15:50:19.442Z,53.03
2017-11-08T15:52:45.643Z,59.20
2017-11-08T15:55:11.861Z,58.40
2017-11-08T15:57:38.787Z,57.07
2017-11-08T16:00:05.027Z,50.97
2017-11-08T16:02:32.306Z,51.13
2017-11-08T16:04:58.487Z,49.73
2017-11-08T16:07:24.677Z,59.67
2017-11-08T16:09:51.123Z,48.47
2017-11-08T16:12:17.317Z,45.10
2017-11-08T16:14:43.499Z,49.17
2017-11-08T16:17:11.343Z,53.90
2017-11-08T16:19:40.442Z,49.70
2017-11-08T16:22:06.629Z,56.13
2017-11-08T16:24:32.843Z,57.07
2017-11-08T16:26:59.781Z,58.13
2017-11-08T16:29:26.754Z,50.77
2017-11-08T16:31:52.974Z,51.50
2017-11-08T16:34:19.150Z,57.80
2017-11-08T16:36:45.356Z,53.43
2017-11-08T16:39:11.778Z,54.50
2017-11-08T16:41:37.960Z,50.83
2017-11-08T16:44:04.135Z,51.87
2017-11-08T16:46:30.589Z,49.17
2017-11-08T16:48:56.768Z,49.63
2017-11-08T16:51:23.678Z,52.50
2017-11-08T16:53:50.162Z,58.47
2017-11-08T16:56:16.321Z,56.37
2017-11-08T16:58:42.501Z,65.87
2017-11-08T17:01:08.693Z,58.40
2017-11-08T17:03:34.902Z,60.10
2017-11-08T17:06:01.100Z,61.57
2017-11-08T17:08:27.289Z,62.07
2017-11-08T17:10:54.317Z,63.80
2017-11-08T17:13:20.504Z,59.07
2017-11-08T17:15:47.854Z,62.33
2017-11-08T17:18:14.065Z,55.97
2017-11-08T17:20:40.231Z,62.43
2017-11-08T17:23:07.261Z,59.67
2017-11-08T17:25:33.435Z,64.10
2017-11-08T17:27:59.622Z,68.80
2017-11-08T17:30:25.884Z,66.40
2017-11-08T17:32:52.103Z,61.43
2017-11-08T17:35:18.289Z,57.53
2017-11-08T17:37:44.837Z,64.87
2017-11-08T17:40:11.021Z,70.53
2017-11-08T17:42:37.960Z,73.33
2017-11-08T17:45:04.925Z,70.27
2017-11-08T17:47:31.089Z,66.93
2017-11-08T17:49:57.263Z,69.40
2017-11-08T17:52:24.445Z,62.07
2017-11-08T17:54:50.612Z,66.83
2017-11-08T17:57:16.794Z,71.40
2017-11-08T17:59:43.333Z,72.73
2017-11-08T18:02:09.500Z,74.17
2017-11-08T18:04:35.726Z,70.60
2017-11-08T18:07:01.948Z,63.03
2017-11-08T18:09:28.152Z,60.13
2017-11-08T18:11:54.332Z,57.13
2017-11-08T18:14:21.265Z,65.07
2017-11-08T18:16:47.463Z,67.30
2017-11-08T18:19:13.632Z,55.40
2017-11-08T18:21:40.918Z,63.93
2017-11-08T18:24:07.085Z,62.83
2017-11-08T18:26:33.285Z,63.80
2017-11-08T18:28:59.485Z,59.17
2017-11-08T18:31:25.679Z,62.30
2017-11-08T18:33:51.869Z,66.77
2017-11-08T18:36:18.289Z,59.00
2017-11-08T18:38:44.461Z,61.60
2017-11-08T18:41:10.639Z,69.30
2017-11-08T18:43:36.816Z,64.57
2017-11-08T18:46:02.993Z,63.37
2017-11-08T18:48:29.164Z,61.93
2017-11-08T18:50:55.617Z,63.83
2017-11-08T18:53:22.557Z,68.00
2017-11-08T18:55:48.750Z,59.20
2017-11-08T18:58:14.960Z,61.17
2017-11-08T19:00:41.156Z,63.17
2017-11-08T19:03:08.073Z,58.70
2017-11-08T19:05:34.266Z,64.63
2017-11-08T19:08:00.452Z,68.57
2017-11-08T19:10:27.400Z,65.00
2017-11-08T19:12:54.334Z,72.73
2017-11-08T19:15:21.272Z,68.27
2017-11-08T19:17:47.474Z,57.90
2017-11-08T19:20:13.765Z,65.63
2017-11-08T19:22:39.945Z,59.00
2017-11-08T19:25:06.138Z,68.60
2017-11-08T19:27:32.658Z,58.97
2017-11-08T19:29:58.849Z,66.27
2017-11-08T19:32:25.801Z,62.13
2017-11-08T19:34:52.788Z,67.27
2017-11-08T19:37:18.968Z,71.37
2017-11-08T19:39:45.893Z,62.40
2017-11-08T19:42:12.105Z,61.53
2017-11-08T19:44:38.328Z,72.33
2017-11-08T19:47:04.513Z,64.53
2017-11-08T19:49:30.743Z,68.90
2017-11-08T19:51:56.920Z,72.27
2017-11-08T19:54:23.097Z,64.30
2017-11-08T19:56:49.350Z,67.87
2017-11-08T19:59:15.522Z,65.13
2017-11-08T20:01:41.707Z,63.77
2017-11-08T20:04:07.900Z,73.90
2017-11-08T20:06:34.132Z,74.10
2017-11-08T20:09:00.315Z,68.53
2017-11-08T20:11:26.526Z,63.73
2017-11-08T20:13:52.715Z,64.83
2017-11-08T20:16:18.893Z,63.13
2017-11-08T20:18:45.120Z,65.10
2017-11-08T20:21:11.302Z,60.17
2017-11-08T20:23:37.469Z,61.30
2017-11-08T20:26:03.829Z,69.70
2017-11-08T20:28:30.754Z,70.33
2017-11-08T20:30:57.005Z,64.30
2017-11-08T20:33:23.970Z,63.10
2017-11-08T20:35:50.147Z,68.13
2017-11-08T20:38:16.347Z,56.93
2017-11-08T20:40:42.533Z,64.30
2017-11-08T20:43:09.455Z,67.63
2017-11-08T20:45:35.811Z,63.90
2017-11-08T20:48:02.751Z,63.73
2017-11-08T20:50:29.667Z,65.10
2017-11-08T20:52:56.160Z,67.33
2017-11-08T20:55:22.339Z,60.47
2017-11-08T20:57:48.558Z,58.90
2017-11-08T21:00:14.775Z,68.40
2017-11-08T21:02:40.961Z,66.30
2017-11-08T21:05:07.153Z,64.13
2017-11-08T21:07:33.372Z,76.53
2017-11-08T21:09:59.580Z,65.53
2017-11-08T21:12:26.492Z,66.30
2017-11-08T21:14:52.698Z,63.13
2017-11-08T21:17:18.893Z,68.13
2017-11-08T21:19:45.124Z,70.77
2017-11-08T21:22:11.481Z,69.33
2017-11-08T21:24:37.664Z,66.50
2017-11-08T21:27:04.594Z,65.50
2017-11-08T21:29:30.801Z,66.97
2017-11-08T21:31:56.962Z,75.43
2017-11-08T21:34:23.868Z,65.57
2017-11-08T21:36:50.061Z,73.90
2017-11-08T21:39:16.247Z,67.33
2017-11-08T21:41:43.204Z,69.00
2017-11-08T21:44:10.149Z,71.63
2017-11-08T21:46:37.066Z,74.73
2017-11-08T21:49:03.282Z,72.30
2017-11-08T21:51:29.476Z,70.47
2017-11-08T21:53:55.703Z,68.80
2017-11-08T21:56:21.883Z,68.70
2017-11-08T21:58:48.058Z,68.47
2017-11-08T22:01:14.247Z,73.53
2017-11-08T22:03:40.429Z,67.33
2017-11-08T22:06:06.597Z,84.93
2017-11-08T22:08:33.172Z,78.93
2017-11-08T22:10:59.347Z,72.90
2017-11-08T22:13:25.526Z,72.30
2017-11-08T22:15:51.705Z,68.70
2017-11-08T22:18:17.906Z,65.23
2017-11-08T22:20:44.337Z,68.33
2017-11-08T22:23:10.511Z,75.73
2017-11-08T22:25:37.443Z,82.50
2017-11-08T22:28:03.640Z,66.83
2017-11-08T22:30:29.825Z,78.93
2017-11-08T22:32:56.032Z,75.53
2017-11-08T22:35:22.274Z,73.00
2017-11-08T22:37:49.214Z,75.10
2017-11-08T22:40:15.532Z,75.68
2017-11-08T22:42:42.465Z,71.90
2017-11-08T22:45:08.656Z,79.70
2017-11-08T22:47:34.851Z,70.23
2017-11-08T22:50:01.024Z,73.20
2017-11-08T22:52:27.213Z,80.23
2017-11-08T22:54:53.653Z,72.00
2017-11-08T22:57:19.838Z,80.30
2017-11-08T22:59:46.009Z,68.30
2017-11-08T23:02:12.248Z,70.53
2017-11-08T23:04:38.421Z,75.53
2017-11-08T23:07:04.585Z,71.57
2017-11-08T23:09:30.776Z,83.20
2017-11-08T23:11:56.970Z,80.23
2017-11-08T23:14:23.153Z,76.00
2017-11-08T23:16:50.319Z,76.40
2017-11-08T23:19:16.500Z,77.10
2017-11-08T23:21:42.681Z,77.40
2017-11-08T23:24:08.872Z,82.57
2017-11-08T23:26:35.881Z,83.90
2017-11-08T23:29:02.085Z,79.47
2017-11-08T23:31:28.263Z,73.83
2017-11-08T23:33:55.168Z,82.33
2017-11-08T23:36:21.570Z,76.93
2017-11-08T23:38:47.736Z,72.23
2017-11-08T23:41:13.941Z,80.00
2017-11-08T23:43:40.137Z,77.77
2017-11-08T23:46:06.333Z,70.23
2017-11-08T23:48:32.517Z,79.33
2017-11-08T23:50:59.777Z,75.27
2017-11-08T23:53:25.986Z,66.63
2017-11-08T23:55:54.187Z,84.60
2017-11-08T23:58:20.355Z,74.37
